Time;durP1;ratioP1;P1;durP2;ratioP2;P2;SDS_P1;SDS_P2;PMS_P1;PMS_P2;Temp;Humidity;BMP_temperature;BMP_pressure;BME280_temperature;BME280_humidity;BME280_pressure;Samples;Min_cycle;Max_cycle;Signal;HPM_P1;HPM_P2
2024/02/05 00:00:49;;;;;;;12.65;7.50;;;;;;;4.89;100.00;97717.91;1225479;75;2920980;-63
2024/02/05 00:03:24;;;;;;;7.85;6.00;;;;;;;4.93;100.00;97715.84;1224797;75;2920037;-63
2024/02/05 00:05:57;;;;;;;6.00;4.85;;;;;;;4.94;100.00;97727.47;1224822;75;2921310;-63
2024/02/05 00:08:30;;;;;;;12.05;8.45;;;;;;;4.47;100.00;97720.72;1225318;75;2920649;-63
2024/02/05 00:11:03;;;;;;;10.05;6.80;;;;;;;4.73;100.00;97718.03;1224470;75;2917058;-63
2024/02/05 00:13:36;;;;;;;7.80;6.35;;;;;;;4.96;100.00;97703.38;1224729;75;2924304;-61
2024/02/05 00:16:10;;;;;;;8.90;6.20;;;;;;;4.70;100.00;97709.56;1225042;75;2916917;-63
2024/02/05 00:18:46;;;;;;;7.65;5.90;;;;;;;4.88;100.00;97700.09;1224594;67;2921977;-64
2024/02/05 00:21:18;;;;;;;6.70;4.85;;;;;;;4.72;100.00;97716.53;1224857;75;2922313;-65
2024/02/05 00:23:51;;;;;;;8.70;5.75;;;;;;;5.11;100.00;97726.88;1224604;75;2916952;-66
2024/02/05 00:26:24;;;;;;;6.15;4.25;;;;;;;5.13;100.00;97713.63;1225047;75;2931117;-62
2024/02/05 00:28:57;;;;;;;6.05;4.50;;;;;;;5.04;100.00;97707.38;1224608;75;2919558;-62
2024/02/05 00:31:30;;;;;;;5.90;4.35;;;;;;;5.15;100.00;97701.56;1225461;75;2918376;-63
2024/02/05 00:34:06;;;;;;;4.85;3.60;;;;;;;5.17;100.00;97724.41;1224867;75;2925846;-63
2024/02/05 00:36:38;;;;;;;8.00;4.60;;;;;;;5.03;100.00;97719.44;1225382;75;2916560;-65
2024/02/05 00:39:11;;;;;;;6.15;4.25;;;;;;;5.03;100.00;97714.75;1224755;75;2920563;-63
2024/02/05 00:41:44;;;;;;;4.55;3.75;;;;;;;5.24;100.00;97720.66;1223361;75;2928040;-67
2024/02/05 00:44:17;;;;;;;4.35;3.10;;;;;;;5.25;100.00;97727.63;1224933;75;2916529;-63
2024/02/05 00:46:52;;;;;;;4.95;3.20;;;;;;;5.02;100.00;97726.03;1223603;75;2928296;-63
2024/02/05 00:49:27;;;;;;;7.00;4.40;;;;;;;4.83;100.00;97719.66;1225170;75;2917428;-61
2024/02/05 00:52:00;;;;;;;4.45;3.35;;;;;;;5.08;100.00;97727.75;1224376;75;2928817;-66
2024/02/05 00:54:33;;;;;;;5.55;4.05;;;;;;;5.03;100.00;97712.03;1223882;75;2919198;-65
2024/02/05 00:57:06;;;;;;;5.50;3.25;;;;;;;4.86;100.00;97730.41;1225736;75;2916683;-60
2024/02/05 00:59:39;;;;;;;6.70;4.50;;;;;;;5.05;100.00;97727.84;1224868;75;2928637;-61
2024/02/05 01:02:12;;;;;;;6.80;4.45;;;;;;;4.88;100.00;97722.59;1225137;75;2921222;-63
2024/02/05 01:04:47;;;;;;;6.70;4.85;;;;;;;4.90;100.00;97701.19;1224766;75;2919535;-62
2024/02/05 01:07:21;;;;;;;5.90;4.05;;;;;;;5.31;100.00;97710.31;1226088;75;2922660;-60
2024/02/05 01:09:53;;;;;;;7.35;5.10;;;;;;;5.09;100.00;97721.13;1224655;75;2921619;-60
2024/02/05 01:12:27;;;;;;;5.85;4.20;;;;;;;5.12;100.00;97703.22;1225273;75;2923660;-62
2024/02/05 01:15:01;;;;;;;6.35;4.45;;;;;;;5.31;100.00;97701.44;1225646;75;2925984;-63
2024/02/05 01:17:34;;;;;;;8.30;5.75;;;;;;;5.17;100.00;97701.91;1222779;75;2926543;-64
2024/02/05 01:20:13;;;;;;;8.60;5.95;;;;;;;5.37;100.00;97696.97;1224946;75;2928177;-64
2024/02/05 01:22:45;;;;;;;;;;;;;;;5.39;100.00;97686.44;1226848;75;2918111;-63
2024/02/05 01:25:18;;;;;;;7.30;4.50;;;;;;;5.50;100.00;97686.81;1225212;75;2917495;-61
2024/02/05 01:27:51;;;;;;;5.85;4.50;;;;;;;5.58;100.00;97676.47;1224985;75;2918165;-62
2024/02/05 01:30:24;;;;;;;6.75;3.70;;;;;;;5.44;100.00;97674.25;1224912;75;2921005;-62
2024/02/05 01:32:57;;;;;;;12.40;8.60;;;;;;;5.08;100.00;97653.75;1225854;75;2914871;-63
2024/02/05 01:35:32;;;;;;;10.00;6.45;;;;;;;5.46;100.00;97650.91;1224976;75;2920184;-63
2024/02/05 01:38:05;;;;;;;7.75;5.40;;;;;;;5.44;100.00;97672.31;1225168;75;2920344;-62
2024/02/05 01:40:38;;;;;;;11.40;6.45;;;;;;;5.03;100.00;97682.19;1223665;75;2922028;-64
2024/02/05 01:43:11;;;;;;;10.50;6.20;;;;;;;5.26;100.00;97656.59;1224789;75;2927742;-62
2024/02/05 01:45:43;;;;;;;8.20;5.80;;;;;;;5.38;100.00;97652.34;1225162;75;2919856;-62
2024/02/05 01:48:18;;;;;;;7.10;5.00;;;;;;;5.37;100.00;97642.69;1224847;75;2921476;-64
2024/02/05 01:50:55;;;;;;;10.20;6.60;;;;;;;5.08;100.00;97640.94;1225358;75;2915998;-60
2024/02/05 01:53:28;;;;;;;7.05;5.15;;;;;;;5.23;100.00;97640.47;1225014;75;2917994;-63
2024/02/05 01:56:01;;;;;;;8.85;6.15;;;;;;;4.74;100.00;97646.31;1224659;75;2916895;-63
2024/02/05 01:58:34;;;;;;;7.40;5.10;;;;;;;4.91;100.00;97628.72;1224695;75;2929145;-61
2024/02/05 02:01:09;;;;;;;4.90;4.05;;;;;;;5.12;100.00;97630.72;1224624;75;2923833;-63
2024/02/05 02:03:44;;;;;;;8.45;6.00;;;;;;;4.51;100.00;97642.78;1223994;75;2952816;-64
2024/02/05 02:06:20;;;;;;;8.10;5.45;;;;;;;4.95;100.00;97629.34;1225161;75;2915825;-65
2024/02/05 02:08:53;;;;;;;6.55;4.70;;;;;;;4.67;100.00;97629.09;1225169;75;2922825;-66
2024/02/05 02:11:26;;;;;;;7.00;4.65;;;;;;;4.83;100.00;97617.34;1225444;75;2923432;-61
2024/02/05 02:13:59;;;;;;;5.70;4.30;;;;;;;4.83;100.00;97603.00;1225000;75;2917006;-63
2024/02/05 02:16:33;;;;;;;5.40;3.95;;;;;;;4.61;100.00;97619.22;1224137;75;2918698;-62
2024/02/05 02:19:20;;;;;;;5.95;3.60;;;;;;;4.87;100.00;97617.97;1225050;75;2922971;-63
2024/02/05 02:22:07;;;;;;;6.70;4.90;;;;;;;4.72;100.00;97614.22;1224284;75;2919974;-63
2024/02/05 02:24:42;;;;;;;4.95;3.30;;;;;;;4.89;100.00;97609.41;1224710;75;2921724;-62
2024/02/05 02:27:15;;;;;;;5.35;4.10;;;;;;;4.56;100.00;97608.94;1224480;75;2924069;-62
2024/02/05 02:29:48;;;;;;;7.10;4.45;;;;;;;4.32;100.00;97632.91;1224475;75;2920586;-61
2024/02/05 02:32:31;;;;;;;6.75;4.40;;;;;;;4.29;100.00;97617.53;1223897;75;2925953;-62
2024/02/05 02:35:11;;;;;;;4.60;3.40;;;;;;;4.63;100.00;97617.59;1224316;75;2956638;-62
2024/02/05 02:37:53;;;;;;;5.40;4.25;;;;;;;4.24;100.00;97625.00;1223904;75;2920231;-64
2024/02/05 02:40:31;;;;;;;5.50;3.85;;;;;;;4.22;100.00;97608.41;1225412;75;2920461;-65
2024/02/05 02:43:10;;;;;;;5.10;3.20;;;;;;;4.26;100.00;97614.50;1224384;75;2922662;-64
2024/02/05 02:45:44;;;;;;;5.25;3.65;;;;;;;4.15;100.00;97597.78;1223813;75;2927296;-62
2024/02/05 02:48:16;;;;;;;4.45;3.05;;;;;;;4.39;100.00;97595.50;1225248;75;2925226;-64
2024/02/05 02:50:49;;;;;;;3.95;3.05;;;;;;;4.44;100.00;97592.25;1224777;75;2942091;-61
2024/02/05 02:53:22;;;;;;;4.05;2.80;;;;;;;4.46;100.00;97599.94;1223527;75;2927732;-63
2024/02/05 02:55:58;;;;;;;4.35;3.35;;;;;;;4.45;100.00;97610.03;1224468;75;2920968;-62
2024/02/05 02:58:31;;;;;;;4.35;3.10;;;;;;;4.46;100.00;97597.25;1224103;75;2931963;-63
2024/02/05 03:01:04;;;;;;;5.40;3.05;;;;;;;4.61;100.00;97592.88;1225057;75;2917179;-62
2024/02/05 03:03:36;;;;;;;4.05;2.70;;;;;;;4.55;100.00;97602.75;1224985;75;2916789;-63
2024/02/05 03:06:09;;;;;;;3.95;2.80;;;;;;;4.46;100.00;97603.41;1224638;75;2920082;-61
2024/02/05 03:08:42;;;;;;;3.65;2.60;;;;;;;4.45;100.00;97604.63;1224210;75;2922761;-66
2024/02/05 03:11:18;;;;;;;5.85;2.90;;;;;;;4.53;100.00;97616.00;1224422;75;2928959;-64
2024/02/05 03:13:50;;;;;;;3.65;2.50;;;;;;;4.57;100.00;97594.97;1224517;75;2919489;-62
2024/02/05 03:16:23;;;;;;;3.25;2.30;;;;;;;4.73;100.00;97609.56;1224607;75;2923791;-63
2024/02/05 03:18:56;;;;;;;3.20;2.40;;;;;;;4.58;100.00;97603.84;1224520;75;2934927;-65
2024/02/05 03:21:29;;;;;;;5.70;3.20;;;;;;;4.64;100.00;97607.50;1225375;75;2919236;-62
2024/02/05 03:24:02;;;;;;;3.75;2.60;;;;;;;4.72;100.00;97602.63;1224315;75;2927339;-62
2024/02/05 03:26:37;;;;;;;4.20;2.60;;;;;;;4.77;100.00;97597.41;1224232;75;2922460;-65
2024/02/05 03:29:10;;;;;;;4.50;3.00;;;;;;;4.52;100.00;97603.63;1224836;75;2939122;-62
2024/02/05 03:31:44;;;;;;;3.80;2.90;;;;;;;4.83;100.00;97600.31;1224119;75;2924184;-63
2024/02/05 03:34:17;;;;;;;2.95;2.30;;;;;;;4.87;100.00;97603.66;1224778;75;2923298;-61
2024/02/05 03:36:50;;;;;;;2.45;1.70;;;;;;;4.89;100.00;97610.16;1224722;75;2943077;-61
2024/02/05 03:39:23;;;;;;;3.75;2.45;;;;;;;4.74;100.00;97592.84;1223499;75;2933298;-64
2024/02/05 03:41:58;;;;;;;3.60;2.40;;;;;;;5.05;100.00;97592.19;1225087;75;2922504;-62
2024/02/05 03:44:32;;;;;;;2.85;2.20;;;;;;;5.09;100.00;97599.03;1224635;75;2943686;-61
2024/02/05 03:47:05;;;;;;;3.10;2.10;;;;;;;5.20;99.99;97592.50;1224967;67;2917612;-67
2024/02/05 03:49:38;;;;;;;3.35;2.20;;;;;;;4.99;100.00;97602.88;1224989;75;2921217;-66
2024/02/05 03:52:11;;;;;;;4.45;2.80;;;;;;;5.36;98.37;97577.97;1224017;75;2924997;-63
2024/02/05 03:54:46;;;;;;;5.20;2.75;;;;;;;5.41;97.51;97589.03;1224077;75;2921177;-64
2024/02/05 03:57:23;;;;;;;3.05;2.30;;;;;;;5.46;97.24;97596.59;1224609;75;2926552;-63
2024/02/05 03:59:56;;;;;;;3.65;2.25;;;;;;;5.36;98.86;97581.44;1224559;75;2924549;-64
2024/02/05 04:02:29;;;;;;;3.70;1.95;;;;;;;5.39;97.92;97586.00;1223587;75;2879596;-63
2024/02/05 04:05:02;;;;;;;2.55;1.45;;;;;;;5.50;98.05;97589.06;1223874;75;2927657;-64
2024/02/05 04:07:35;;;;;;;2.40;1.80;;;;;;;5.37;98.67;97601.97;1224852;75;2929207;-64
2024/02/05 04:10:10;;;;;;;3.10;2.60;;;;;;;5.19;100.00;97589.00;1225313;75;2919806;-62
2024/02/05 04:12:45;;;;;;;3.30;2.60;;;;;;;5.27;100.00;97587.56;1224556;75;2932168;-61
2024/02/05 04:15:18;;;;;;;4.40;3.10;;;;;;;5.48;98.26;97582.56;1224462;75;2920253;-63
2024/02/05 04:17:51;;;;;;;3.95;2.70;;;;;;;5.51;97.35;97579.75;1224576;75;2926457;-64
2024/02/05 04:20:24;;;;;;;3.10;2.30;;;;;;;5.52;97.02;97575.06;1224232;75;2923515;-60
2024/02/05 04:22:57;;;;;;;4.00;1.85;;;;;;;5.49;96.84;97571.28;1224061;75;2935535;-63
2024/02/05 04:25:29;;;;;;;2.45;2.00;;;;;;;5.37;98.74;97576.78;1224607;75;2926474;-63
2024/02/05 04:28:05;;;;;;;2.95;2.30;;;;;;;5.25;100.00;97570.22;1223443;75;2923550;-63
2024/02/05 04:30:41;;;;;;;2.70;2.15;;;;;;;5.26;100.00;97558.91;1223334;75;2926239;-64
2024/02/05 04:33:13;;;;;;;2.85;2.10;;;;;;;5.34;99.85;97562.13;1223952;75;2925028;-64
2024/02/05 04:35:47;;;;;;;3.15;2.10;;;;;;;5.33;99.41;97572.22;1225279;75;2920185;-61
2024/02/05 04:38:19;;;;;;;2.55;1.90;;;;;;;5.45;97.81;97559.78;1223231;75;2919274;-63
2024/02/05 04:40:52;;;;;;;2.30;1.80;;;;;;;5.49;98.28;97565.09;1223906;75;2923525;-61
2024/02/05 04:43:28;;;;;;;3.20;1.70;;;;;;;5.36;98.72;97551.56;1225469;75;2905652;-62
2024/02/05 04:46:01;;;;;;;2.50;1.80;;;;;;;5.44;98.36;97555.56;1224562;75;2923575;-60
2024/02/05 04:48:33;;;;;;;2.75;1.85;;;;;;;5.33;98.00;97553.22;1224388;75;2922937;-61
2024/02/05 04:51:12;;;;;;;3.10;2.25;;;;;;;5.45;97.62;97554.34;1225171;75;2919911;-61
2024/02/05 04:53:45;;;;;;;3.50;2.20;;;;;;;5.60;95.55;97546.44;1224024;75;2926561;-64
2024/02/05 04:56:18;;;;;;;3.05;2.15;;;;;;;5.78;92.63;97559.38;1224456;75;2925193;-65
2024/02/05 04:58:53;;;;;;;4.20;2.20;;;;;;;5.79;92.32;97551.97;1223827;75;2917783;-62
2024/02/05 05:01:26;;;;;;;5.30;2.25;;;;;;;5.76;92.30;97550.91;1224657;75;2924254;-63
2024/02/05 05:03:59;;;;;;;3.80;2.20;;;;;;;5.85;90.98;97547.47;1224639;75;2930702;-62
2024/02/05 05:06:32;;;;;;;5.00;2.65;;;;;;;6.07;89.54;97545.47;1223648;75;2919261;-63
2024/02/05 05:09:05;;;;;;;6.60;3.15;;;;;;;5.91;90.63;97541.00;1224510;75;2925884;-63
2024/02/05 05:11:39;;;;;;;11.40;8.10;;;;;;;6.45;87.08;97554.50;1224673;75;2922014;-63
2024/02/05 05:14:14;;;;;;;29.45;20.70;;;;;;;7.43;79.40;97534.41;1223901;75;2931516;-63
2024/02/05 05:16:47;;;;;;;11.20;8.90;;;;;;;8.00;75.85;97550.09;1223751;75;2922131;-63
2024/02/05 05:19:20;;;;;;;5.85;3.85;;;;;;;9.10;71.60;97545.22;1224684;75;2934292;-64
2024/02/05 05:21:53;;;;;;;3.80;1.55;;;;;;;10.06;67.14;97552.28;1223876;75;2933969;-65
2024/02/05 05:24:26;;;;;;;4.10;1.95;;;;;;;10.16;65.95;97559.16;1224297;75;2918649;-68
2024/02/05 05:26:59;;;;;;;3.25;1.90;;;;;;;10.66;64.55;97572.81;1223915;75;2936165;-60
2024/02/05 05:29:34;;;;;;;5.40;2.10;;;;;;;10.84;62.73;97563.56;1223419;75;2930236;-68
2024/02/05 05:32:08;;;;;;;5.30;1.70;;;;;;;11.93;59.13;97568.41;1224017;75;2927458;-64
2024/02/05 05:34:41;;;;;;;6.90;4.15;;;;;;;12.45;56.78;97561.28;1224092;75;2925568;-63
2024/02/05 05:37:14;;;;;;;3.65;1.75;;;;;;;12.37;56.50;97569.22;1223854;75;2924215;-62
2024/02/05 05:39:49;;;;;;;2.95;1.20;;;;;;;12.34;56.89;97575.69;1224327;75;2922598;-64
2024/02/05 05:42:22;;;;;;;1.20;0.55;;;;;;;12.55;55.70;97568.84;1223074;75;2945585;-64
2024/02/05 05:44:57;;;;;;;2.05;0.75;;;;;;;12.61;55.51;97574.34;1224078;75;2925009;-63
2024/02/05 05:47:30;;;;;;;0.70;0.40;;;;;;;12.69;54.82;97583.63;1224470;75;2936881;-64
2024/02/05 05:50:02;;;;;;;2.05;0.65;;;;;;;12.54;55.56;97572.81;1223391;75;2931655;-64
2024/02/05 05:52:36;;;;;;;1.85;0.50;;;;;;;12.79;53.90;97582.19;1224242;75;2920362;-61
2024/02/05 05:55:10;;;;;;;3.05;0.60;;;;;;;12.87;53.32;97581.69;1223767;75;2921665;-62
2024/02/05 05:57:43;;;;;;;3.10;0.80;;;;;;;12.57;55.11;97582.81;1224107;75;2927595;-63
2024/02/05 06:00:21;;;;;;;3.00;1.05;;;;;;;12.19;56.07;97586.81;1224630;75;2920087;-64
2024/02/05 06:02:55;;;;;;;;;;;;;;;12.55;54.00;97584.53;1225266;75;2924120;-64
2024/02/05 06:05:28;;;;;;;1.80;0.50;;;;;;;13.37;51.27;97598.41;1223897;75;2922111;-61
2024/02/05 06:08:01;;;;;;;0.80;0.40;;;;;;;13.38;51.77;97602.66;1224731;75;2920664;-64
2024/02/05 06:10:35;;;;;;;1.45;0.50;;;;;;;13.35;51.40;97619.41;1224179;75;2924729;-63
2024/02/05 06:13:08;;;;;;;8.30;0.90;;;;;;;13.40;51.29;97619.41;1224202;75;2920722;-64
2024/02/05 06:15:43;;;;;;;1.75;0.65;;;;;;;13.46;50.78;97616.69;1223632;75;2921505;-63
2024/02/05 06:18:16;;;;;;;4.45;0.60;;;;;;;13.73;49.86;97625.47;1224846;75;2920535;-63
2024/02/05 06:20:49;;;;;;;1.55;0.70;;;;;;;13.35;51.33;97622.91;1224356;75;2923224;-66
2024/02/05 06:23:22;;;;;;;2.20;0.50;;;;;;;13.26;50.80;97631.34;1223487;75;2949173;-64
2024/02/05 06:25:54;;;;;;;0.50;0.40;;;;;;;13.26;51.54;97630.59;1224194;75;2921090;-63
2024/02/05 06:28:27;;;;;;;2.25;0.70;;;;;;;12.96;51.77;97641.94;1224243;75;2921847;-61
2024/02/05 06:31:03;;;;;;;5.15;2.05;;;;;;;12.56;53.09;97658.19;1223928;75;2928600;-63
2024/02/05 06:33:40;;;;;;;3.20;1.60;;;;;;;12.66;52.85;97636.78;1224734;75;2921829;-63
2024/02/05 06:36:14;;;;;;;3.20;1.95;;;;;;;12.35;54.02;97654.81;1223833;75;2921526;-65
2024/02/05 06:38:47;;;;;;;3.15;1.65;;;;;;;12.34;54.26;97661.53;1224215;75;2922758;-67
2024/02/05 06:41:20;;;;;;;2.85;1.30;;;;;;;12.15;53.29;97657.66;1223386;75;2932075;-63
2024/02/05 06:43:53;;;;;;;3.80;1.15;;;;;;;12.35;53.14;97654.06;1223221;75;2922573;-64
2024/02/05 06:46:28;;;;;;;2.10;1.05;;;;;;;12.08;54.32;97669.06;1223359;75;2924697;-63
2024/02/05 06:49:01;;;;;;;3.70;1.00;;;;;;;11.54;56.22;97655.75;1222326;75;2927936;-64
2024/02/05 06:51:34;;;;;;;2.60;1.25;;;;;;;11.20;57.22;97673.81;1222918;75;2923793;-61
2024/02/05 06:54:08;;;;;;;4.20;1.40;;;;;;;11.75;54.93;97672.94;1224484;75;2921650;-64
2024/02/05 06:56:41;;;;;;;5.30;1.55;;;;;;;13.10;49.90;97663.00;1224152;75;2928258;-64
2024/02/05 06:59:14;;;;;;;3.60;1.40;;;;;;;13.56;49.10;97680.47;1224253;75;2923217;-67
2024/02/05 07:01:49;;;;;;;2.70;1.20;;;;;;;13.62;48.97;97672.97;1224830;75;2919581;-67
2024/02/05 07:04:22;;;;;;;4.10;1.10;;;;;;;14.13;47.41;97684.09;1224154;75;2922858;-64
2024/02/05 07:06:55;;;;;;;4.70;1.00;;;;;;;14.21;47.51;97682.34;1224391;75;2921518;-65
2024/02/05 07:09:28;;;;;;;5.40;1.85;;;;;;;14.04;48.50;97676.81;1223905;75;2921270;-67
2024/02/05 07:12:01;;;;;;;8.50;2.60;;;;;;;13.49;49.77;97684.44;1223887;75;2921632;-66
2024/02/05 07:14:34;;;;;;;6.10;2.35;;;;;;;12.94;51.72;97688.38;1219688;75;2925602;-64
2024/02/05 07:17:09;;;;;;;7.80;2.80;;;;;;;12.58;53.02;97685.19;1222515;75;2922062;-64
2024/02/05 07:19:42;;;;;;;5.10;2.15;;;;;;;13.04;52.86;97702.72;1223318;75;2930391;-64
2024/02/05 07:22:16;;;;;;;6.85;1.90;;;;;;;12.03;54.91;97697.19;1223409;75;2924986;-66
2024/02/05 07:24:49;;;;;;;8.40;3.55;;;;;;;12.21;55.44;97687.88;1224305;75;2921609;-65
2024/02/05 07:27:25;;;;;;;7.30;3.40;;;;;;;12.33;54.66;97694.97;1224223;75;2925827;-65
2024/02/05 07:29:58;;;;;;;6.45;2.30;;;;;;;11.89;55.00;97702.28;1223585;75;2923874;-63
2024/02/05 07:32:34;;;;;;;5.85;2.40;;;;;;;11.97;55.71;97688.16;1223637;75;2922337;-65
2024/02/05 07:35:08;;;;;;;4.45;2.55;;;;;;;12.47;54.06;97704.31;1223764;75;2929665;-66
2024/02/05 07:37:42;;;;;;;7.45;2.25;;;;;;;12.04;54.65;97704.19;1223860;75;2929526;-67
2024/02/05 07:40:16;;;;;;;9.95;2.10;;;;;;;12.17;54.45;97692.81;1224240;75;2919376;-66
2024/02/05 07:42:49;;;;;;;3.30;1.70;;;;;;;12.82;52.98;97701.34;1222390;75;2924129;-64
2024/02/05 07:45:22;;;;;;;7.05;1.40;;;;;;;13.17;50.96;97708.50;1223191;75;2925362;-64
2024/02/05 07:47:57;;;;;;;2.85;1.05;;;;;;;13.48;50.23;97702.19;1223576;75;2930930;-64
2024/02/05 07:50:30;;;;;;;3.60;1.85;;;;;;;13.67;50.78;97712.75;1220281;75;3139943;-65
2024/02/05 07:53:03;;;;;;;13.05;4.20;;;;;;;12.44;53.99;97716.28;1221504;75;2934670;-65
2024/02/05 07:55:36;;;;;;;9.70;3.80;;;;;;;12.49;53.77;97708.06;1224098;75;2926186;-65
2024/02/05 07:58:09;;;;;;;10.45;4.10;;;;;;;12.84;52.77;97715.31;1222884;75;2921880;-67
2024/02/05 08:00:42;;;;;;;13.60;3.00;;;;;;;12.27;54.95;97718.88;1224004;75;2926231;-65
2024/02/05 08:03:18;;;;;;;5.20;2.40;;;;;;;12.64;54.30;97718.91;1223872;75;2925932;-66
2024/02/05 08:05:51;;;;;;;8.25;2.40;;;;;;;11.98;56.45;97728.84;1223807;75;2930453;-65
2024/02/05 08:08:23;;;;;;;9.35;1.95;;;;;;;12.51;53.92;97719.31;1223883;75;2921526;-67
2024/02/05 08:10:57;;;;;;;4.15;2.15;;;;;;;12.71;53.86;97728.72;1225223;75;2920321;-66
2024/02/05 08:13:30;;;;;;;2.90;1.20;;;;;;;13.02;53.83;97733.41;1222845;75;2928618;-66
2024/02/05 08:16:06;;;;;;;6.00;1.20;;;;;;;13.29;51.72;97726.59;1208007;75;4077673;-64
2024/02/05 08:18:45;;;;;;;3.65;1.50;;;;;;;13.47;51.69;97724.66;1110777;75;8240485;-64
2024/02/05 08:21:18;;;;;;;3.20;1.45;;;;;;;13.45;52.69;97730.69;1223828;75;2923146;-64
2024/02/05 08:23:51;;;;;;;4.75;1.80;;;;;;;13.27;51.92;97734.59;1222925;75;2923323;-65
2024/02/05 08:26:23;;;;;;;2.60;1.30;;;;;;;13.99;51.51;97738.84;1221434;75;2931115;-61
2024/02/05 08:28:56;;;;;;;4.90;1.50;;;;;;;13.61;52.30;97745.75;1222735;75;2935718;-65
2024/02/05 08:31:29;;;;;;;6.70;3.35;;;;;;;13.88;52.05;97740.81;1222868;75;2924243;-67
2024/02/05 08:34:05;;;;;;;4.70;2.50;;;;;;;13.93;51.81;97742.88;1223062;75;2927955;-65
2024/02/05 08:36:38;;;;;;;8.00;2.50;;;;;;;13.76;52.94;97731.81;1223373;75;2921222;-65
2024/02/05 08:39:11;;;;;;;3.25;1.85;;;;;;;14.36;52.93;97750.94;1221099;75;2925118;-66
2024/02/05 08:41:45;;;;;;;3.25;1.75;;;;;;;14.51;51.97;97750.72;1223104;75;2926023;-64
2024/02/05 08:44:18;;;;;;;2.45;1.35;;;;;;;14.69;51.92;97750.22;1222597;75;2928549;-65
2024/02/05 08:46:52;;;;;;;1.20;0.95;;;;;;;14.74;52.57;97746.72;1223262;75;2928037;-65
2024/02/05 08:49:29;;;;;;;2.45;1.25;;;;;;;14.54;52.77;97756.00;1223124;75;2919646;-66
2024/02/05 08:52:02;;;;;;;1.40;0.70;;;;;;;14.79;51.93;97768.03;1223194;75;2924659;-63
2024/02/05 08:54:36;;;;;;;7.95;2.15;;;;;;;13.83;54.03;97736.84;1223616;67;2930781;-67
2024/02/05 08:57:09;;;;;;;3.65;1.50;;;;;;;14.33;53.39;97762.97;1223682;75;2928488;-65
2024/02/05 08:59:41;;;;;;;2.45;1.20;;;;;;;14.45;53.90;97773.47;1224298;75;2924827;-65
2024/02/05 09:02:15;;;;;;;2.80;1.40;;;;;;;14.58;54.01;97748.25;1223464;75;2924515;-65
2024/02/05 09:04:50;;;;;;;2.50;1.20;;;;;;;14.82;52.24;97747.72;1224662;75;2918689;-63
2024/02/05 09:07:23;;;;;;;4.00;1.30;;;;;;;15.07;51.36;97750.72;1161374;75;5815917;-67
2024/02/05 09:09:56;;;;;;;2.60;1.10;;;;;;;15.59;50.78;97752.84;1136976;75;8661110;-65
2024/02/05 09:12:29;;;;;;;1.55;1.00;;;;;;;15.58;49.62;97758.84;1222477;75;2922537;-66
2024/02/05 09:15:06;;;;;;;1.25;0.68;;;;;;;15.98;49.28;97749.16;1198221;75;5442188;-62
2024/02/05 09:17:39;;;;;;;0.50;0.50;;;;;;;16.15;49.33;97758.09;1223671;75;2920111;-64
2024/02/05 09:20:15;;;;;;;2.35;0.80;;;;;;;16.57;50.25;97767.13;1222616;75;2923475;-63
2024/02/05 09:22:48;;;;;;;3.40;1.05;;;;;;;16.69;49.08;97761.50;1221882;75;2920965;-65
2024/02/05 09:25:21;;;;;;;7.65;1.60;;;;;;;16.38;49.29;97761.50;1223385;75;2929146;-66
2024/02/05 09:27:55;;;;;;;14.20;2.70;;;;;;;15.89;51.25;97766.78;1223196;75;2934144;-66
2024/02/05 09:30:27;;;;;;;10.80;3.55;;;;;;;16.29;50.07;97761.78;1223492;75;2924221;-66
2024/02/05 09:33:00;;;;;;;7.60;3.00;;;;;;;16.45;49.61;97760.19;1222995;75;2923205;-65
2024/02/05 09:35:36;;;;;;;6.10;2.40;;;;;;;17.26;49.50;97770.81;1222252;75;2927073;-63
2024/02/05 09:38:09;;;;;;;2.70;1.80;;;;;;;17.43;49.33;97776.19;1223175;75;2924306;-65
2024/02/05 09:40:41;;;;;;;5.55;2.60;;;;;;;17.64;48.11;97776.47;1222230;75;2920205;-64
2024/02/05 09:43:15;;;;;;;7.80;2.45;;;;;;;17.75;48.82;97784.66;1221928;75;2930788;-66
2024/02/05 09:45:53;;;;;;;11.15;2.90;;;;;;;17.91;47.20;97782.22;1223817;75;2923345;-66
2024/02/05 09:48:26;;;;;;;9.30;3.30;;;;;;;18.00;45.34;97787.41;1223800;75;2919294;-66
2024/02/05 09:51:02;;;;;;;13.25;2.90;;;;;;;17.85;45.65;97794.13;1223749;75;2950139;-62
2024/02/05 09:53:36;;;;;;;10.00;2.00;;;;;;;17.95;46.13;97791.72;1223727;75;2919580;-65
2024/02/05 09:56:12;;;;;;;5.40;2.20;;;;;;;18.39;44.36;97792.41;1223601;75;2919592;-66
2024/02/05 09:58:45;;;;;;;5.80;2.75;;;;;;;18.66;43.64;97798.03;1222279;75;2916122;-64
2024/02/05 10:01:18;;;;;;;5.00;2.80;;;;;;;18.97;43.23;97791.03;1223860;75;2924748;-65
2024/02/05 10:03:53;;;;;;;3.25;1.90;;;;;;;19.04;42.09;97784.84;1223346;75;2920932;-62
2024/02/05 10:06:34;;;;;;;2.55;1.50;;;;;;;19.21;41.17;97790.09;1224072;75;2923257;-68
2024/02/05 10:09:10;;;;;;;3.80;1.50;;;;;;;19.91;39.98;97778.69;1224695;75;2925354;-65
2024/02/05 10:11:47;;;;;;;4.90;1.70;;;;;;;19.34;41.11;97781.81;1223374;75;2926812;-67
2024/02/05 10:14:21;;;;;;;6.20;1.40;;;;;;;19.66;40.97;97786.50;1223526;75;2923098;-65
2024/02/05 10:16:57;;;;;;;5.20;1.40;;;;;;;19.60;40.63;97783.09;1223438;75;2923760;-67
2024/02/05 10:19:30;;;;;;;2.10;1.15;;;;;;;20.06;42.11;97783.72;1223558;67;2925940;-67
2024/02/05 10:22:07;;;;;;;2.75;0.80;;;;;;;19.98;42.17;97786.38;1223009;75;2924717;-66
2024/02/05 10:24:43;;;;;;;0.70;0.60;;;;;;;20.26;40.98;97782.28;1222965;75;2940634;-64
2024/02/05 10:27:20;;;;;;;2.35;0.55;;;;;;;19.97;41.30;97779.34;1223749;75;2917946;-66
2024/02/05 10:30:02;;;;;;;1.95;0.60;;;;;;;20.47;40.34;97768.41;1222528;75;2920873;-65
2024/02/05 10:32:35;;;;;;;4.05;0.85;;;;;;;20.56;39.82;97767.94;1223806;75;2925771;-65
2024/02/05 10:35:13;;;;;;;2.00;1.10;;;;;;;20.79;38.68;97765.38;1224376;75;2928689;-65
2024/02/05 10:37:48;;;;;;;3.50;1.05;;;;;;;21.46;37.63;97781.69;1223780;75;2923316;-65
2024/02/05 10:40:21;;;;;;;4.70;1.70;;;;;;;21.80;34.87;97770.34;1223012;75;2938383;-65
2024/02/05 10:42:54;;;;;;;2.85;1.15;;;;;;;23.25;33.47;97768.44;1223708;75;2926074;-65
2024/02/05 10:45:27;;;;;;;4.30;2.40;;;;;;;23.76;32.98;97759.78;1224068;75;2918577;-65
2024/02/05 10:48:00;;;;;;;4.15;1.85;;;;;;;25.23;32.15;97754.81;1224791;75;2926149;-66
2024/02/05 10:50:32;;;;;;;2.10;1.10;;;;;;;25.32;31.27;97761.81;1224044;75;2921280;-67
2024/02/05 10:53:08;;;;;;;4.30;1.00;;;;;;;26.31;30.85;97764.78;1224200;75;2920844;-65
2024/02/05 10:55:44;;;;;;;2.15;0.90;;;;;;;26.58;28.78;97755.66;1223618;75;2927045;-67
2024/02/05 10:58:17;;;;;;;1.75;0.80;;;;;;;26.74;29.20;97757.63;1219298;75;3165118;-65
2024/02/05 11:00:50;;;;;;;3.40;1.00;;;;;;;25.48;29.55;97746.31;1223748;75;2928621;-65
2024/02/05 11:03:28;;;;;;;1.70;1.00;;;;;;;26.19;29.67;97741.41;1222655;75;2927448;-65
2024/02/05 11:06:03;;;;;;;2.50;1.00;;;;;;;26.15;29.39;97741.81;1224296;75;2927979;-64
2024/02/05 11:08:41;;;;;;;1.40;0.60;;;;;;;26.41;29.43;97736.78;1224780;75;2925184;-66
2024/02/05 11:11:15;;;;;;;2.25;0.80;;;;;;;26.89;27.74;97745.44;1222435;75;2924382;-66
2024/02/05 11:13:56;;;;;;;2.05;0.55;;;;;;;27.47;27.52;97744.06;1221434;75;2922714;-66
2024/02/05 11:16:29;;;;;;;2.30;0.65;;;;;;;26.25;27.68;97737.00;1223706;75;2927886;-65
2024/02/05 11:19:04;;;;;;;0.60;0.30;;;;;;;28.30;26.82;97731.72;1223574;75;2929970;-65
2024/02/05 11:21:44;;;;;;;1.50;0.60;;;;;;;26.07;26.68;97725.09;1223127;75;2918858;-68
2024/02/05 11:24:23;;;;;;;1.25;0.50;;;;;;;27.21;26.53;97728.84;1224194;75;2922925;-66
2024/02/05 11:26:57;;;;;;;2.80;0.80;;;;;;;26.92;25.45;97721.78;1224623;75;2925688;-64
2024/02/05 11:29:36;;;;;;;1.30;0.40;;;;;;;27.04;26.56;97716.34;1223978;75;2928701;-67
2024/02/05 11:32:11;;;;;;;2.90;0.60;;;;;;;26.07;27.26;97729.94;1223935;75;2920676;-67
2024/02/05 11:34:45;;;;;;;1.55;0.60;;;;;;;26.45;25.91;97726.59;1223888;75;2923777;-65
2024/02/05 11:37:20;;;;;;;0.85;0.50;;;;;;;26.60;26.41;97716.50;1224216;75;2922085;-67
2024/02/05 11:39:59;;;;;;;2.40;0.70;;;;;;;26.71;25.64;97727.19;1223850;75;2926241;-68
2024/02/05 11:42:33;;;;;;;0.65;0.30;;;;;;;28.51;25.59;97726.22;1223979;75;2924481;-67
2024/02/05 11:45:08;;;;;;;1.40;0.40;;;;;;;28.04;25.40;97720.09;1223415;75;2927533;-64
2024/02/05 11:47:41;;;;;;;1.50;0.60;;;;;;;27.33;24.83;97721.28;1202804;75;4071207;-66